Monday, July 23, 2018, 11:39 AM GMT
Back to Local

CWRK, Bancroft Automatic Weather Reporting System

Location: , , Canada Lat: 45.067
Local Time: 11:39 AM GMT (11:39 GMT) Lon: -77.867
Time Zone: GMT Elev: 1085 ft

Show me the last for .
Show Coded

Time T Td Feel RH Dir Speed Gust Alt SLP Vis Weather Sky Remarks
2018-07-23 11:00 69 69 - 100 110° 3 - - 30.01 0 None
2018-07-23 10:00 68 68 - 100 130° 2 - - 30.00 0 None
2018-07-23 09:00 67 67 - 100 140° 1 - - 29.98 0 None
2018-07-23 08:00 65 65 - 100 - Calm - - 29.99 0 None
2018-07-23 07:00 66 66 - 100 300° 1 - - 29.99 0 1-hr Precip Total: 0.05"
2018-07-23 06:00 65 65 - 100 - Calm - - 30.00 0 None
2018-07-23 05:00 64 64 - 100 280° 1 - - 30.00 0 None
2018-07-23 04:00 65 65 - 98 290° 3 - - 30.01 0 None
2018-07-23 03:00 65 64 - 98 70° 1 - - 30.00 0 None
2018-07-23 02:00 64 64 - 99 300° 1 - - 30.01 0 None
2018-07-23 01:00 65 65 - 98 310° 2 - - 29.98 0 None
2018-07-23 00:00 68 65 - 89 40° 3 - - 29.96 0 None
2018-07-22 23:00 68 64 - 88 20° 3 - - 29.94 0 None
2018-07-22 22:00 66 64 - 91 360° 2 - - 29.93 0 None
2018-07-22 21:00 66 64 - 91 60° 3 - - 29.91 0 None
2018-07-22 20:00 64 63 - 95 80° 5 - - 29.91 0 None
2018-07-22 19:00 64 63 - 95 80° 7 - - 29.89 0 None
2018-07-22 18:00 64 62 - 93 80° 9 - - 29.89 0 None
2018-07-22 17:00 64 62 - 92 70° 8 - - 29.89 0 None
2018-07-22 16:00 63 62 - 95 40° 7 - - 29.89 0 None
2018-07-22 15:00 60 61 - 102 60° 8 - - 29.91 0 1-hr Precip Total: 0.08"
2018-07-22 14:00 62 58 - 85 50° 5 - - 29.91 0 1-hr Precip Total: 0.09"
2018-07-22 13:00 67 53 - 61 70° 6 - - 29.91 0 None
2018-07-22 12:00 65 53 - 63 40° 5 - - 29.91 0 None

Support USWX by starting your Amazon purchase here.